Time;durP1;ratioP1;P1;durP2;ratioP2;P2;SDS_P1;SDS_P2;PMS_P1;PMS_P2;Temp;Humidity;BMP_temperature;BMP_pressure;BME280_temperature;BME280_humidity;BME280_pressure;Samples;Min_cycle;Max_cycle;Signal;HPM_P1;HPM_P2
2022/06/05 00:01:36;;;;;;;;;;;13.80;99.90;;;;;;5110297;28;19932;-71
2022/06/05 00:04:01;;;;;;;;;;;13.70;99.90;;;;;;5110128;28;19904;-71
2022/06/05 00:06:30;;;;;;;;;;;13.70;99.90;;;;;;5111082;28;19926;-71
2022/06/05 00:08:55;;;;;;;;;;;13.70;99.90;;;;;;5112974;28;19954;-71
2022/06/05 00:11:22;;;;;;;;;;;13.70;99.90;;;;;;5112894;28;20373;-72
2022/06/05 00:13:52;;;;;;;;;;;13.70;99.90;;;;;;5112696;28;19910;-72
2022/06/05 00:16:19;;;;;;;;;;;13.70;99.90;;;;;;5112760;28;19912;-72
2022/06/05 00:18:45;;;;;;;;;;;13.70;99.90;;;;;;5112648;28;19934;-72
2022/06/05 00:21:11;;;;;;;;;;;13.70;99.90;;;;;;5112634;28;20380;-73
2022/06/05 00:23:36;;;;;;;;;;;13.70;99.90;;;;;;5112759;28;19908;-73
2022/06/05 00:26:15;;;;;;;;;;;13.70;99.90;;;;;;5112600;28;20288;-72
2022/06/05 00:28:49;;;;;;;;;;;13.80;99.90;;;;;;5112441;28;19907;-72
2022/06/05 00:31:30;;;;;;;;;;;13.80;99.90;;;;;;5112372;28;20292;-72
2022/06/05 00:33:57;;;;;;;;;;;13.70;99.90;;;;;;5112659;28;19930;-73
2022/06/05 00:36:41;;;;;;;;;;;13.80;99.90;;;;;;5111976;28;20356;-72
2022/06/05 00:39:15;;;;;;;;;;;13.80;99.90;;;;;;5112202;28;19939;-72
2022/06/05 00:41:52;;;;;;;;;;;13.80;99.90;;;;;;5112309;28;19904;-72
2022/06/05 00:44:33;;;;;;;;;;;13.80;99.90;;;;;;5112312;28;19907;-73
2022/06/05 00:46:59;;;;;;;;;;;13.70;99.90;;;;;;5112248;28;19904;-73
2022/06/05 00:49:29;;;;;;;;;;;13.80;99.90;;;;;;5112044;28;19908;-73
2022/06/05 00:51:54;;;;;;;;;;;13.80;99.90;;;;;;5111814;28;19930;-72
2022/06/05 00:54:20;;;;;;;;;;;13.80;99.90;;;;;;5111372;28;20264;-73
2022/06/05 00:56:45;;;;;;;;;;;13.80;99.90;;;;;;5111886;28;19904;-72
2022/06/05 00:59:12;;;;;;;;;;;13.80;99.90;;;;;;5111977;28;19911;-72
2022/06/05 01:01:38;;;;;;;;;;;13.80;99.90;;;;;;5111241;28;19907;-72
2022/06/05 01:04:04;;;;;;;;;;;13.80;99.90;;;;;;5108580;28;19903;-72
2022/06/05 01:06:30;;;;;;;;;;;13.80;99.90;;;;;;5108687;28;19949;-71
2022/06/05 01:08:56;;;;;;;;;;;13.80;99.90;;;;;;5111832;28;19999;-73
2022/06/05 01:11:35;;;;;;;;;;;13.80;99.90;;;;;;5112303;28;19991;-73
2022/06/05 01:14:01;;;;;;;;;;;13.80;99.90;;;;;;5112393;28;19956;-73
2022/06/05 01:16:28;;;;;;;;;;;13.90;99.90;;;;;;5112291;28;20318;-73
2022/06/05 01:18:54;;;;;;;;;;;13.90;99.90;;;;;;5111638;28;20003;-73
2022/06/05 01:21:22;;;;;;;;;;;13.90;99.90;;;;;;5126964;27;19990;-72
2022/06/05 01:24:06;;;;;;;;;;;13.90;99.90;;;;;;5111570;28;19914;-73
2022/06/05 01:26:40;;;;;;;;;;;13.90;99.90;;;;;;5111952;28;19957;-74
2022/06/05 01:29:12;;;;;;;;;;;13.80;99.90;;;;;;5111698;28;19999;-75
2022/06/05 01:31:41;;;;;;;;;;;13.80;99.90;;;;;;5111521;28;19907;-74
2022/06/05 01:34:09;;;;;;;;;;;13.80;99.90;;;;;;5111343;28;20146;-75
2022/06/05 01:36:47;;;;;;;;;;;13.80;99.90;;;;;;5111079;28;19911;-74
2022/06/05 01:39:21;;;;;;;;;;;13.80;99.90;;;;;;5111342;28;20057;-74
2022/06/05 01:41:49;;;;;;;;;;;13.80;99.90;;;;;;5111318;28;19903;-75
2022/06/05 01:44:19;;;;;;;;;;;13.80;99.90;;;;;;5111276;28;19922;-75
2022/06/05 01:46:44;;;;;;;;;;;13.80;99.90;;;;;;5097546;28;19904;-74
2022/06/05 01:49:36;;;;;;;;;;;13.80;99.90;;;;;;5089110;28;19973;-74
2022/06/05 01:52:04;;;;;;;;;;;13.80;99.90;;;;;;5056156;28;19915;-74
2022/06/05 01:54:33;;;;;;;;;;;13.80;99.90;;;;;;5087635;28;19908;-74
2022/06/05 01:56:59;;;;;;;;;;;13.80;99.90;;;;;;5087830;28;19908;-74
2022/06/05 01:59:34;;;;;;;;;;;13.80;99.90;;;;;;5087823;28;19923;-74
2022/06/05 02:02:02;;;;;;;;;;;13.80;99.90;;;;;;5087528;28;19965;-74
2022/06/05 02:04:33;;;;;;;;;;;13.90;99.90;;;;;;5090394;28;19915;-73
2022/06/05 02:07:02;;;;;;;;;;;13.90;99.90;;;;;;5110372;28;19904;-73
2022/06/05 02:09:40;;;;;;;;;;;13.80;99.90;;;;;;5110922;28;20006;-74
2022/06/05 02:12:07;;;;;;;;;;;13.90;99.90;;;;;;5110883;28;20032;-73
2022/06/05 02:14:33;;;;;;;;;;;13.90;99.90;;;;;;5110863;28;20288;-73
2022/06/05 02:16:59;;;;;;;;;;;13.80;99.90;;;;;;5110896;28;20370;-74
2022/06/05 02:19:24;;;;;;;;;;;13.80;99.90;;;;;;5110779;28;19916;-73
2022/06/05 02:21:52;;;;;;;;;;;13.80;99.90;;;;;;5110453;28;19953;-73
2022/06/05 02:24:18;;;;;;;;;;;13.80;99.90;;;;;;5110830;28;19911;-73
2022/06/05 02:26:43;;;;;;;;;;;13.80;99.90;;;;;;5110860;28;19912;-73
2022/06/05 02:29:20;;;;;;;;;;;13.80;99.90;;;;;;5110734;28;19904;-73
2022/06/05 02:32:04;;;;;;;;;;;13.80;99.90;;;;;;5110895;28;19919;-73
2022/06/05 02:34:34;;;;;;;;;;;13.80;99.90;;;;;;5110503;28;20340;-73
2022/06/05 02:37:08;;;;;;;;;;;13.90;99.90;;;;;;5110296;28;20336;-73
2022/06/05 02:39:52;;;;;;;;;;;13.80;99.90;;;;;;5110528;28;20435;-73
2022/06/05 02:42:18;;;;;;;;;;;13.80;99.90;;;;;;5110567;28;19908;-73
2022/06/05 02:44:43;;;;;;;;;;;13.90;99.90;;;;;;5110368;28;20002;-74
2022/06/05 02:47:11;;;;;;;;;;;13.90;99.90;;;;;;5110490;28;19987;-74
2022/06/05 02:49:39;;;;;;;;;;;13.90;99.90;;;;;;5110420;28;19914;-73
2022/06/05 02:52:05;;;;;;;;;;;13.90;99.90;;;;;;5110055;28;19943;-73
2022/06/05 02:54:31;;;;;;;;;;;13.90;99.90;;;;;;5110458;28;19960;-73
2022/06/05 02:56:57;;;;;;;;;;;13.80;99.90;;;;;;5109066;28;19904;-73
2022/06/05 02:59:24;;;;;;;;;;;13.80;99.90;;;;;;5107606;28;20376;-73
2022/06/05 03:04:33;;;;;;;;;;;13.90;99.90;;;;;;5107323;28;19910;-74
2022/06/05 03:06:59;;;;;;;;;;;13.90;99.90;;;;;;5107784;28;19907;-74
2022/06/05 03:09:24;;;;;;;;;;;14.00;99.90;;;;;;5110523;28;19947;-72
2022/06/05 03:11:50;;;;;;;;;;;14.00;99.90;;;;;;5110288;28;19950;-73
2022/06/05 03:14:15;;;;;;;;;;;13.90;99.90;;;;;;5110436;28;19911;-73
2022/06/05 03:16:41;;;;;;;;;;;13.90;99.90;;;;;;5111742;28;19904;-74
2022/06/05 03:19:06;;;;;;;;;;;13.90;99.90;;;;;;5113346;28;19922;-74
2022/06/05 03:21:34;;;;;;;;;;;13.90;99.90;;;;;;5113534;28;19910;-73
2022/06/05 03:23:59;;;;;;;;;;;13.90;99.90;;;;;;5113814;28;19907;-72
2022/06/05 03:26:26;;;;;;;;;;;13.90;99.90;;;;;;5113776;28;19910;-73
2022/06/05 03:28:51;;;;;;;;;;;13.90;99.90;;;;;;5113907;28;20364;-73
2022/06/05 03:31:17;;;;;;;;;;;13.90;99.90;;;;;;5113797;28;19914;-72
2022/06/05 03:33:42;;;;;;;;;;;13.90;99.90;;;;;;5113615;28;19904;-72
2022/06/05 03:36:09;;;;;;;;;;;13.90;99.90;;;;;;5113262;28;19939;-73
2022/06/05 03:38:35;;;;;;;;;;;13.90;99.90;;;;;;5113325;28;20276;-72
2022/06/05 03:41:00;;;;;;;;;;;13.90;99.90;;;;;;5113402;28;19957;-73
2022/06/05 03:43:26;;;;;;;;;;;13.90;99.90;;;;;;5113580;28;20253;-73
2022/06/05 03:46:02;;;;;;;;;;;13.90;99.90;;;;;;5113512;28;20312;-73
2022/06/05 03:48:27;;;;;;;;;;;13.90;99.90;;;;;;5113413;28;20280;-73
2022/06/05 03:50:53;;;;;;;;;;;13.90;99.90;;;;;;5112968;28;20374;-73
2022/06/05 03:53:18;;;;;;;;;;;13.90;99.90;;;;;;5113178;28;20272;-73
2022/06/05 03:55:44;;;;;;;;;;;13.90;99.90;;;;;;5113333;28;19946;-73
2022/06/05 03:58:09;;;;;;;;;;;14.00;99.90;;;;;;5113089;28;19916;-74
2022/06/05 04:00:35;;;;;;;;;;;13.90;99.90;;;;;;5113325;28;19917;-73
2022/06/05 04:03:00;;;;;;;;;;;13.90;99.90;;;;;;5113069;28;20334;-73
2022/06/05 04:05:26;;;;;;;;;;;13.90;99.90;;;;;;5112718;28;20034;-73
2022/06/05 04:07:52;;;;;;;;;;;13.90;99.90;;;;;;5110144;28;20410;-73
2022/06/05 04:10:18;;;;;;;;;;;13.90;99.90;;;;;;5109906;28;19904;-73
2022/06/05 04:12:44;;;;;;;;;;;13.90;99.90;;;;;;5111880;28;19908;-72
2022/06/05 04:15:11;;;;;;;;;;;13.90;99.90;;;;;;5112489;28;19957;-72
2022/06/05 04:17:36;;;;;;;;;;;13.90;99.90;;;;;;5110284;28;19952;-73
2022/06/05 04:20:02;;;;;;;;;;;13.90;99.90;;;;;;5109575;28;20003;-73
2022/06/05 04:22:28;;;;;;;;;;;13.90;99.90;;;;;;5112219;28;19908;-72
2022/06/05 04:24:53;;;;;;;;;;;13.90;99.90;;;;;;5112914;28;19911;-73
2022/06/05 04:27:19;;;;;;;;;;;13.90;99.90;;;;;;5112228;28;19907;-72
2022/06/05 04:29:44;;;;;;;;;;;13.90;99.90;;;;;;5112169;28;20396;-73
2022/06/05 04:32:10;;;;;;;;;;;13.90;99.90;;;;;;5109778;28;19965;-73
2022/06/05 04:34:35;;;;;;;;;;;13.90;99.90;;;;;;5109192;28;19904;-73
2022/06/05 04:37:01;;;;;;;;;;;13.90;99.90;;;;;;5109481;28;19904;-73
2022/06/05 04:39:26;;;;;;;;;;;14.00;99.90;;;;;;5111996;28;19922;-73
2022/06/05 04:41:52;;;;;;;;;;;13.90;99.90;;;;;;5112249;28;19949;-74
2022/06/05 04:44:18;;;;;;;;;;;14.00;99.90;;;;;;5112405;28;19908;-73
2022/06/05 04:46:44;;;;;;;;;;;14.00;99.90;;;;;;5112422;28;19970;-73
2022/06/05 04:49:13;;;;;;;;;;;14.00;99.90;;;;;;5111845;28;20335;-72
2022/06/05 04:51:39;;;;;;;;;;;14.00;99.90;;;;;;5111714;28;19956;-73
2022/06/05 04:54:05;;;;;;;;;;;14.00;99.90;;;;;;5112364;28;19915;-73
2022/06/05 04:56:32;;;;;;;;;;;14.00;99.90;;;;;;5110857;28;20024;-73
2022/06/05 04:58:58;;;;;;;;;;;14.00;99.90;;;;;;5109094;28;19926;-73
2022/06/05 05:01:25;;;;;;;;;;;14.10;99.90;;;;;;5108693;28;20356;-72
2022/06/05 05:03:52;;;;;;;;;;;14.10;99.90;;;;;;5108898;28;20368;-73
2022/06/05 05:06:18;;;;;;;;;;;14.10;99.90;;;;;;5108338;28;19953;-72
2022/06/05 05:08:44;;;;;;;;;;;14.00;99.90;;;;;;5111605;28;19908;-73
2022/06/05 05:11:09;;;;;;;;;;;14.10;99.90;;;;;;5111812;28;19903;-73
2022/06/05 05:13:35;;;;;;;;;;;14.10;99.90;;;;;;5111832;28;20279;-75
2022/06/05 05:16:00;;;;;;;;;;;14.10;99.90;;;;;;5111658;28;19912;-72
2022/06/05 05:18:26;;;;;;;;;;;14.10;99.90;;;;;;5111086;28;20048;-74
2022/06/05 05:20:52;;;;;;;;;;;14.10;99.90;;;;;;5111307;28;20007;-72
2022/06/05 05:23:19;;;;;;;;;;;14.10;99.90;;;;;;5111793;28;19914;-75
2022/06/05 05:25:46;;;;;;;;;;;14.10;99.90;;;;;;5110808;28;19930;-75
2022/06/05 05:28:12;;;;;;;;;;;14.10;99.90;;;;;;5108409;28;20046;-75
2022/06/05 05:30:42;;;;;;;;;;;14.10;99.90;;;;;;5108602;28;20010;-73
2022/06/05 05:33:07;;;;;;;;;;;14.10;99.90;;;;;;5111391;28;20387;-75
2022/06/05 05:35:33;;;;;;;;;;;14.00;99.90;;;;;;5110586;28;19914;-75
2022/06/05 05:37:58;;;;;;;;;;;14.10;99.90;;;;;;5107896;28;19911;-74
2022/06/05 05:43:08;;;;;;;;;;;14.10;99.90;;;;;;5111215;28;19976;-74
2022/06/05 05:45:34;;;;;;;;;;;14.10;99.90;;;;;;5110726;28;19957;-74
2022/06/05 05:47:59;;;;;;;;;;;14.20;99.90;;;;;;5107865;28;19907;-74
2022/06/05 05:50:25;;;;;;;;;;;14.20;99.90;;;;;;5108183;28;19907;-74
2022/06/05 05:52:50;;;;;;;;;;;14.30;99.90;;;;;;5107929;28;19904;-74
2022/06/05 05:55:18;;;;;;;;;;;14.30;99.90;;;;;;5108322;28;19942;-74
2022/06/05 05:57:43;;;;;;;;;;;14.30;99.90;;;;;;5111049;28;20847;-73
2022/06/05 06:00:11;;;;;;;;;;;14.30;99.90;;;;;;5110977;28;19950;-74
2022/06/05 06:02:38;;;;;;;;;;;14.30;99.90;;;;;;5111153;28;19914;-72
2022/06/05 06:05:03;;;;;;;;;;;14.30;99.90;;;;;;5108782;28;19998;-74
2022/06/05 06:07:29;;;;;;;;;;;14.30;99.90;;;;;;5108101;28;19998;-74
2022/06/05 06:09:55;;;;;;;;;;;14.30;99.90;;;;;;5108885;28;19926;-73
2022/06/05 06:12:21;;;;;;;;;;;14.30;99.90;;;;;;5110869;28;20291;-75
2022/06/05 06:14:47;;;;;;;;;;;14.30;99.90;;;;;;5111021;28;19908;-74
2022/06/05 06:17:12;;;;;;;;;;;14.40;99.90;;;;;;5108465;28;20283;-74
2022/06/05 06:19:38;;;;;;;;;;;14.40;99.90;;;;;;5108245;28;19929;-74
2022/06/05 06:22:04;;;;;;;;;;;14.40;99.90;;;;;;5090766;28;19904;-73
2022/06/05 06:24:30;;;;;;;;;;;14.40;99.90;;;;;;5108451;28;19904;-74
2022/06/05 06:26:55;;;;;;;;;;;14.40;99.90;;;;;;5107620;28;19903;-73
2022/06/05 06:29:21;;;;;;;;;;;14.40;99.90;;;;;;5107798;28;19982;-73
2022/06/05 06:31:47;;;;;;;;;;;14.40;99.90;;;;;;5107662;28;19908;-74
2022/06/05 06:34:12;;;;;;;;;;;14.40;99.90;;;;;;5107505;28;19911;-74
2022/06/05 06:36:38;;;;;;;;;;;14.50;99.90;;;;;;5109257;28;19908;-73
2022/06/05 06:39:04;;;;;;;;;;;14.50;99.90;;;;;;5110518;28;20329;-74
2022/06/05 06:41:29;;;;;;;;;;;14.50;99.90;;;;;;5110695;28;19910;-74
2022/06/05 06:43:55;;;;;;;;;;;14.50;99.90;;;;;;5110518;28;19911;-74
2022/06/05 06:46:20;;;;;;;;;;;14.60;99.90;;;;;;5110567;28;19908;-74
2022/06/05 06:48:46;;;;;;;;;;;14.70;99.90;;;;;;5110650;28;20384;-74
2022/06/05 06:51:13;;;;;;;;;;;14.70;99.90;;;;;;5111336;28;20279;-74
2022/06/05 06:53:40;;;;;;;;;;;14.80;99.90;;;;;;5114760;28;19949;-74
2022/06/05 06:56:06;;;;;;;;;;;14.80;99.90;;;;;;5114770;28;19904;-74
2022/06/05 06:58:32;;;;;;;;;;;14.90;99.90;;;;;;5114346;28;19960;-74
2022/06/05 07:00:57;;;;;;;;;;;15.00;99.90;;;;;;5114611;28;19916;-74
2022/06/05 07:03:23;;;;;;;;;;;15.10;99.90;;;;;;5111212;28;19960;-74
2022/06/05 07:05:48;;;;;;;;;;;15.10;99.90;;;;;;5111181;28;19904;-73
2022/06/05 07:08:14;;;;;;;;;;;15.20;99.90;;;;;;5112539;28;20443;-74
2022/06/05 07:10:39;;;;;;;;;;;15.20;99.90;;;;;;5114334;28;19908;-72
2022/06/05 07:13:05;;;;;;;;;;;15.20;99.90;;;;;;5114288;28;19903;-74
2022/06/05 07:15:34;;;;;;;;;;;15.20;99.90;;;;;;5114141;28;20276;-75
2022/06/05 07:18:00;;;;;;;;;;;15.20;99.90;;;;;;5114324;28;19904;-73
2022/06/05 07:20:26;;;;;;;;;;;15.30;99.90;;;;;;5114030;28;19954;-74
2022/06/05 07:22:51;;;;;;;;;;;15.30;99.90;;;;;;5113824;28;19943;-74
2022/06/05 07:25:17;;;;;;;;;;;15.30;99.90;;;;;;5113977;28;19971;-74
2022/06/05 07:27:42;;;;;;;;;;;15.40;99.90;;;;;;5114046;28;20010;-74
2022/06/05 07:30:08;;;;;;;;;;;15.40;99.90;;;;;;5113899;28;19970;-74
2022/06/05 07:32:33;;;;;;;;;;;15.40;99.90;;;;;;5114078;28;19907;-74
2022/06/05 07:34:59;;;;;;;;;;;15.40;99.90;;;;;;5113741;28;19904;-74
2022/06/05 07:37:25;;;;;;;;;;;15.40;99.90;;;;;;5113581;28;20322;-74
2022/06/05 07:39:50;;;;;;;;;;;15.50;99.90;;;;;;5113595;28;20360;-74
2022/06/05 07:42:16;;;;;;;;;;;15.50;99.90;;;;;;5113453;28;19904;-73
2022/06/05 07:44:41;;;;;;;;;;;15.50;99.90;;;;;;5113354;28;19914;-73
2022/06/05 07:47:07;;;;;;;;;;;15.60;99.90;;;;;;5113589;28;19904;-71
2022/06/05 07:49:34;;;;;;;;;;;15.60;99.90;;;;;;5113588;28;19946;-75
2022/06/05 07:55:04;;;;;;;;;;;15.60;99.90;;;;;;5070400;28;19912;-74
2022/06/05 07:57:30;;;;;;;;;;;15.60;99.90;;;;;;5070261;28;19920;-73
2022/06/05 07:59:55;;;;;;;;;;;15.60;99.90;;;;;;5089724;28;20291;-74
2022/06/05 08:02:23;;;;;;;;;;;15.60;99.90;;;;;;5113168;28;19904;-74
2022/06/05 08:04:50;;;;;;;;;;;15.60;99.90;;;;;;5113051;28;20394;-74
2022/06/05 08:07:17;;;;;;;;;;;15.60;99.90;;;;;;5112917;28;19911;-74
2022/06/05 08:09:43;;;;;;;;;;;15.70;99.90;;;;;;5112927;28;19911;-74
2022/06/05 08:12:10;;;;;;;;;;;15.70;99.90;;;;;;5112955;28;19908;-75
2022/06/05 08:14:36;;;;;;;;;;;15.70;99.90;;;;;;5113131;28;19927;-75
2022/06/05 08:17:04;;;;;;;;;;;15.70;99.90;;;;;;5110616;28;19915;-75
2022/06/05 08:19:29;;;;;;;;;;;15.70;99.90;;;;;;5109467;28;19919;-75
2022/06/05 08:21:55;;;;;;;;;;;15.70;99.90;;;;;;5111391;28;19903;-73
2022/06/05 08:24:21;;;;;;;;;;;15.60;99.90;;;;;;5112788;28;20260;-74
2022/06/05 08:26:46;;;;;;;;;;;15.60;99.90;;;;;;5112811;28;19899;-75
2022/06/05 08:29:12;;;;;;;;;;;15.50;99.90;;;;;;5112814;28;20318;-75
2022/06/05 08:31:38;;;;;;;;;;;15.50;99.90;;;;;;5128408;27;19912;-74
2022/06/05 08:34:04;;;;;;;;;;;15.50;99.90;;;;;;5112649;28;19991;-75
2022/06/05 08:36:30;;;;;;;;;;;15.40;99.90;;;;;;5112017;28;19910;-75
2022/06/05 08:41:56;;;;;;;;;;;15.40;99.90;;;;;;5112609;28;20005;-75
2022/06/05 08:44:40;;;;;;;;;;;15.40;99.90;;;;;;5112382;28;19911;-75
2022/06/05 08:47:08;;;;;;;;;;;15.50;99.90;;;;;;5111999;28;19908;-75
2022/06/05 08:49:34;;;;;;;;;;;15.50;99.90;;;;;;5112069;28;20283;-75
2022/06/05 08:52:32;;;;;;;;;;;15.50;99.90;;;;;;5111969;28;20017;-75
2022/06/05 08:55:04;;;;;;;;;;;15.50;99.90;;;;;;5088489;28;19915;-75
2022/06/05 08:57:39;;;;;;;;;;;15.60;99.90;;;;;;5111893;28;19911;-75
2022/06/05 09:00:08;;;;;;;;;;;15.60;99.90;;;;;;5127699;27;20022;-75
2022/06/05 09:02:43;;;;;;;;;;;15.70;99.90;;;;;;5111553;28;19915;-75
2022/06/05 09:05:13;;;;;;;;;;;15.70;99.90;;;;;;5111591;28;20011;-75
2022/06/05 09:07:47;;;;;;;;;;;15.80;99.90;;;;;;5111663;28;19908;-75
2022/06/05 09:10:45;;;;;;;;;;;15.90;99.90;;;;;;5111437;28;19911;-75
2022/06/05 09:13:14;;;;;;;;;;;15.90;99.90;;;;;;5071027;28;19957;-77
2022/06/05 09:15:45;;;;;;;;;;;16.10;99.90;;;;;;5111667;28;20608;-75
2022/06/05 09:18:16;;;;;;;;;;;16.10;99.90;;;;;;5107305;28;19957;-75
2022/06/05 09:20:51;;;;;;;;;;;16.20;99.90;;;;;;5102265;28;19915;-75
2022/06/05 09:23:29;;;;;;;;;;;16.20;99.90;;;;;;5111361;28;19911;-75
2022/06/05 09:25:58;;;;;;;;;;;16.30;99.90;;;;;;5111303;28;19911;-75
2022/06/05 09:28:35;;;;;;;;;;;16.30;99.90;;;;;;5111457;28;19915;-74
2022/06/05 09:31:19;;;;;;;;;;;16.30;99.90;;;;;;5111552;28;19910;-75
2022/06/05 09:33:46;;;;;;;;;;;16.40;99.90;;;;;;5111714;28;19994;-75
2022/06/05 09:36:17;;;;;;;;;;;16.40;99.90;;;;;;5111203;28;19908;-75
2022/06/05 09:38:45;;;;;;;;;;;16.30;99.90;;;;;;5110914;28;19966;-76
2022/06/05 09:41:10;;;;;;;;;;;16.30;99.90;;;;;;5111234;28;19998;-74
2022/06/05 09:43:49;;;;;;;;;;;16.20;99.90;;;;;;5111198;28;20308;-75
2022/06/05 09:46:17;;;;;;;;;;;16.20;99.90;;;;;;5111149;28;19960;-75
2022/06/05 09:48:43;;;;;;;;;;;16.20;99.90;;;;;;5110931;28;20403;-74
2022/06/05 09:51:10;;;;;;;;;;;16.20;99.90;;;;;;5111371;28;20408;-74
2022/06/05 09:53:45;;;;;;;;;;;16.20;99.90;;;;;;5111444;28;19903;-74
2022/06/05 09:56:11;;;;;;;;;;;16.30;99.90;;;;;;5111023;28;20378;-73
2022/06/05 09:58:45;;;;;;;;;;;16.30;99.90;;;;;;5108803;28;19911;-71
2022/06/05 10:01:25;;;;;;;;;;;16.40;99.90;;;;;;5107748;28;19915;-73
2022/06/05 10:03:51;;;;;;;;;;;16.40;99.90;;;;;;5108149;28;19939;-72
2022/06/05 10:06:35;;;;;;;;;;;16.50;99.90;;;;;;5107625;28;20101;-72
2022/06/05 10:09:07;;;;;;;;;;;16.50;99.90;;;;;;5107792;28;19946;-73
2022/06/05 10:11:56;;;;;;;;;;;16.60;99.90;;;;;;5107562;28;20375;-68
2022/06/05 10:14:24;;;;;;;;;;;16.60;99.90;;;;;;5107569;28;19903;-72
2022/06/05 10:16:52;;;;;;;;;;;16.70;99.90;;;;;;5107363;28;19912;-73
2022/06/05 10:19:29;;;;;;;;;;;16.70;99.90;;;;;;5107208;28;19926;-73
2022/06/05 10:21:58;;;;;;;;;;;16.70;99.90;;;;;;5107051;28;19914;-73
2022/06/05 10:24:27;;;;;;;;;;;16.80;99.90;;;;;;5107293;28;20393;-72
2022/06/05 10:26:56;;;;;;;;;;;16.80;99.90;;;;;;5109635;28;19907;-73
2022/06/05 10:29:28;;;;;;;;;;;17.00;99.90;;;;;;5111645;28;19915;-72
2022/06/05 10:31:56;;;;;;;;;;;16.90;99.90;;;;;;5111612;28;20397;-73
2022/06/05 10:34:26;;;;;;;;;;;17.00;99.90;;;;;;5111656;28;19908;-73
2022/06/05 10:36:58;;;;;;;;;;;17.10;99.90;;;;;;5111525;28;19915;-72
2022/06/05 10:39:53;;;;;;;;;;;17.10;99.90;;;;;;5111393;28;20006;-72
2022/06/05 10:42:31;;;;;;;;;;;17.10;99.90;;;;;;5098100;28;19918;-66
2022/06/05 10:45:00;;;;;;;;;;;17.00;99.90;;;;;;5111156;28;20352;-67
2022/06/05 10:47:38;;;;;;;;;;;17.10;99.90;;;;;;5111290;28;19910;-68
2022/06/05 10:50:18;;;;;;;;;;;17.10;99.90;;;;;;5110366;27;19914;-68
2022/06/05 10:52:47;;;;;;;;;;;17.10;99.90;;;;;;5107777;28;19952;-67
2022/06/05 10:55:46;;;;;;;;;;;17.10;99.90;;;;;;5110850;28;19904;-74
2022/06/05 10:58:17;;;;;;;;;;;17.10;99.90;;;;;;5084895;28;20405;-73
2022/06/05 11:00:56;;;;;;;;;;;17.10;99.90;;;;;;5111445;28;20014;-73
2022/06/05 11:03:42;;;;;;;;;;;17.10;99.90;;;;;;5110054;28;20287;-72
2022/06/05 11:06:25;;;;;;;;;;;17.00;99.90;;;;;;5109954;28;20367;-73
2022/06/05 11:09:16;;;;;;;;;;;17.10;99.90;;;;;;5110952;28;19911;-73
2022/06/05 11:14:48;;;;;;;;;;;17.20;99.90;;;;;;5111206;28;19910;-73
2022/06/05 11:17:19;;;;;;;;;;;17.30;99.90;;;;;;5110840;28;19904;-73
2022/06/05 11:19:50;;;;;;;;;;;17.30;99.90;;;;;;5110905;28;19911;-73
2022/06/05 11:22:16;;;;;;;;;;;17.30;99.90;;;;;;5110626;28;20250;-73
2022/06/05 11:24:52;;;;;;;;;;;17.20;99.90;;;;;;5110966;28;20040;-73
2022/06/05 11:27:18;;;;;;;;;;;17.20;99.90;;;;;;5111480;28;20053;-73
2022/06/05 11:29:56;;;;;;;;;;;17.20;99.90;;;;;;5126517;27;20400;-73
2022/06/05 11:32:31;;;;;;;;;;;17.20;99.90;;;;;;5110837;28;19904;-72
2022/06/05 11:35:07;;;;;;;;;;;17.20;99.90;;;;;;5110471;28;19926;-72
2022/06/05 11:38:02;;;;;;;;;;;17.20;99.90;;;;;;5110012;28;19966;-72
2022/06/05 11:40:28;;;;;;;;;;;17.20;99.90;;;;;;5071140;28;20011;-73
2022/06/05 11:43:05;;;;;;;;;;;17.30;99.90;;;;;;5109540;28;19994;-75
2022/06/05 11:45:36;;;;;;;;;;;17.30;99.90;;;;;;5109000;28;20313;-74
2022/06/05 11:48:02;;;;;;;;;;;17.30;99.90;;;;;;5109476;28;19903;-73
2022/06/05 11:50:32;;;;;;;;;;;17.30;99.90;;;;;;5109318;28;19903;-75
2022/06/05 11:53:09;;;;;;;;;;;17.30;99.90;;;;;;5109296;28;19911;-77
2022/06/05 11:55:38;;;;;;;;;;;17.20;99.90;;;;;;5105931;28;20595;-77
2022/06/05 11:58:06;;;;;;;;;;;17.20;99.90;;;;;;5100178;28;20003;-74
2022/06/05 12:00:35;;;;;;;;;;;17.20;99.90;;;;;;5109477;28;20518;-73
2022/06/05 12:03:04;;;;;;;;;;;17.30;99.90;;;;;;5109304;28;19907;-73
2022/06/05 12:05:40;;;;;;;;;;;17.40;99.90;;;;;;5108794;28;19943;-74
2022/06/05 12:08:09;;;;;;;;;;;17.50;99.90;;;;;;5109061;28;20666;-74
2022/06/05 12:10:38;;;;;;;;;;;17.50;99.90;;;;;;5109642;28;19933;-74
2022/06/05 12:13:22;;;;;;;;;;;17.60;99.90;;;;;;5109243;28;19915;-76
2022/06/05 12:15:47;;;;;;;;;;;17.70;99.90;;;;;;5108679;28;19907;-75
2022/06/05 12:18:23;;;;;;;;;;;17.70;99.90;;;;;;5108780;28;20255;-74
2022/06/05 12:21:01;;;;;;;;;;;17.60;99.90;;;;;;5108684;28;19911;-74
2022/06/05 12:23:29;;;;;;;;;;;17.50;99.90;;;;;;5108277;28;20364;-76
2022/06/05 12:25:57;;;;;;;;;;;17.60;99.90;;;;;;5108470;28;19907;-72
2022/06/05 12:28:37;;;;;;;;;;;17.80;99.90;;;;;;5108653;28;20370;-74
2022/06/05 12:31:09;;;;;;;;;;;18.30;99.90;;;;;;5108521;28;20398;-72
2022/06/05 12:33:54;;;;;;;;;;;18.70;99.90;;;;;;5108576;28;19915;-73
2022/06/05 12:36:41;;;;;;;;;;;19.00;99.90;;;;;;5109231;28;20378;-73
2022/06/05 12:39:13;;;;;;;;;;;18.90;99.90;;;;;;5065174;28;1268954;-69
2022/06/05 12:42:00;;;;;;;;;;;18.80;99.90;;;;;;5110013;28;19964;-72
2022/06/05 12:44:28;;;;;;;;;;;18.70;99.90;;;;;;5109351;28;19908;-71
2022/06/05 12:47:11;;;;;;;;;;;18.60;99.90;;;;;;5109127;28;19908;-72
2022/06/05 12:49:57;;;;;;;;;;;18.50;99.90;;;;;;5099383;28;19904;-72
2022/06/05 12:52:22;;;;;;;;;;;18.50;99.90;;;;;;5087692;28;19908;-72
2022/06/05 12:54:51;;;;;;;;;;;18.40;99.90;;;;;;5088737;28;20321;-72
2022/06/05 12:57:23;;;;;;;;;;;18.30;99.90;;;;;;5088320;28;19954;-71
2022/06/05 12:59:52;;;;;;;;;;;18.20;99.90;;;;;;5100578;28;20369;-71
2022/06/05 13:02:23;;;;;;;;;;;18.20;99.90;;;;;;5108257;28;19914;-71
2022/06/05 13:04:57;;;;;;;;;;;18.20;99.90;;;;;;5108672;28;19920;-71
2022/06/05 13:07:43;;;;;;;;;;;18.30;99.90;;;;;;5108740;28;19990;-71
2022/06/05 13:10:23;;;;;;;;;;;18.40;99.90;;;;;;5100790;28;19957;-71
2022/06/05 13:13:01;;;;;;;;;;;18.40;99.90;;;;;;5108490;28;19951;-71
2022/06/05 13:15:28;;;;;;;;;;;18.40;99.90;;;;;;5108687;28;19915;-71
2022/06/05 13:18:03;;;;;;;;;;;18.40;99.90;;;;;;5108693;28;19914;-71
2022/06/05 13:20:38;;;;;;;;;;;18.30;99.90;;;;;;5108369;28;19916;-71
2022/06/05 13:23:12;;;;;;;;;;;18.20;99.90;;;;;;5108821;28;19996;-71
2022/06/05 13:25:52;;;;;;;;;;;18.20;99.90;;;;;;5108426;28;19957;-70
2022/06/05 13:28:20;;;;;;;;;;;18.30;99.90;;;;;;5108306;28;19911;-70
2022/06/05 13:30:55;;;;;;;;;;;18.20;99.90;;;;;;5108217;28;19907;-70
2022/06/05 13:33:30;;;;;;;;;;;18.20;99.90;;;;;;5108211;28;19972;-70
2022/06/05 13:36:31;;;;;;;;;;;18.20;99.90;;;;;;5089343;28;20464;-69
2022/06/05 13:38:57;;;;;;;;;;;18.30;99.90;;;;;;5064690;28;19926;-70
2022/06/05 13:41:37;;;;;;;;;;;18.30;99.90;;;;;;5098604;28;20008;-70
2022/06/05 13:44:08;;;;;;;;;;;18.30;99.90;;;;;;5108060;28;20006;-70
2022/06/05 13:46:41;;;;;;;;;;;18.30;99.90;;;;;;5107713;28;19907;-70
2022/06/05 13:49:06;;;;;;;;;;;18.50;99.90;;;;;;5107209;28;19933;-70
2022/06/05 13:51:33;;;;;;;;;;;18.60;99.90;;;;;;5107055;28;20314;-70
2022/06/05 13:54:03;;;;;;;;;;;18.60;99.90;;;;;;5107647;28;19912;-70
2022/06/05 13:56:52;;;;;;;;;;;18.70;99.90;;;;;;5107734;28;20011;-70
2022/06/05 13:59:18;;;;;;;;;;;18.70;99.90;;;;;;5101362;28;19918;-69
2022/06/05 14:02:00;;;;;;;;;;;18.90;99.90;;;;;;5107509;28;20358;-68
2022/06/05 14:04:27;;;;;;;;;;;19.10;99.90;;;;;;5107617;28;20240;-69
2022/06/05 14:06:56;;;;;;;;;;;19.60;99.90;;;;;;5107261;28;19903;-69
2022/06/05 14:09:40;;;;;;;;;;;20.00;99.90;;;;;;5107038;28;20295;-69
2022/06/05 14:12:07;;;;;;;;;;;20.20;99.90;;;;;;5107434;28;19926;-69
2022/06/05 14:14:35;;;;;;;;;;;20.50;99.90;;;;;;5107618;28;19914;-70
2022/06/05 14:17:03;;;;;;;;;;;20.30;99.90;;;;;;5108082;28;19918;-68
2022/06/05 14:19:32;;;;;;;;;;;20.10;99.90;;;;;;5107829;28;19916;-70
2022/06/05 14:22:06;;;;;;;;;;;19.90;99.90;;;;;;5107159;28;20406;-68
2022/06/05 14:24:37;;;;;;;;;;;19.80;99.90;;;;;;5107689;28;20254;-69
2022/06/05 14:27:04;;;;;;;;;;;19.80;99.90;;;;;;5107012;28;19915;-69
2022/06/05 14:29:58;;;;;;;;;;;20.00;99.90;;;;;;5088639;28;19915;-69
2022/06/05 14:32:29;;;;;;;;;;;20.40;99.90;;;;;;5097788;28;19907;-69
2022/06/05 14:35:14;;;;;;;;;;;20.50;99.90;;;;;;5107269;28;19915;-68
2022/06/05 14:37:45;;;;;;;;;;;20.70;99.90;;;;;;5107108;28;19919;-68
2022/06/05 14:40:14;;;;;;;;;;;20.90;99.90;;;;;;5107151;28;19922;-69
2022/06/05 14:42:50;;;;;;;;;;;21.00;99.90;;;;;;5107078;28;19936;-70
2022/06/05 14:45:20;;;;;;;;;;;20.80;99.90;;;;;;5107000;28;19938;-68
2022/06/05 14:48:08;;;;;;;;;;;20.50;99.90;;;;;;5107428;28;19911;-69